sensor_id;sensor_type;location;lat;lon;timestamp;temperature;humidity
7708;DHT22;3896;48.758;8.888;2023-04-25T00:01:21;9.60;79.80
7708;DHT22;3896;48.758;8.888;2023-04-25T00:03:48;9.60;79.70
7708;DHT22;3896;48.758;8.888;2023-04-25T00:06:14;9.60;79.90
7708;DHT22;3896;48.758;8.888;2023-04-25T00:08:40;9.60;80.00
7708;DHT22;3896;48.758;8.888;2023-04-25T00:11:05;9.60;80.10
7708;DHT22;3896;48.758;8.888;2023-04-25T00:13:31;9.60;80.40
7708;DHT22;3896;48.758;8.888;2023-04-25T00:15:57;9.60;80.50
7708;DHT22;3896;48.758;8.888;2023-04-25T00:18:23;9.60;80.80
7708;DHT22;3896;48.758;8.888;2023-04-25T00:20:49;9.60;80.80
7708;DHT22;3896;48.758;8.888;2023-04-25T00:23:16;9.50;80.90
7708;DHT22;3896;48.758;8.888;2023-04-25T00:25:44;9.60;81.20
7708;DHT22;3896;48.758;8.888;2023-04-25T00:28:11;9.50;81.20
7708;DHT22;3896;48.758;8.888;2023-04-25T00:30:37;9.50;81.30
7708;DHT22;3896;48.758;8.888;2023-04-25T00:33:03;9.50;81.50
7708;DHT22;3896;48.758;8.888;2023-04-25T00:35:28;9.50;81.70
7708;DHT22;3896;48.758;8.888;2023-04-25T00:37:54;9.50;81.70
7708;DHT22;3896;48.758;8.888;2023-04-25T00:40:20;9.50;82.10
7708;DHT22;3896;48.758;8.888;2023-04-25T00:42:46;9.50;82.30
7708;DHT22;3896;48.758;8.888;2023-04-25T00:45:13;9.50;83.20
7708;DHT22;3896;48.758;8.888;2023-04-25T00:47:40;9.50;83.50
7708;DHT22;3896;48.758;8.888;2023-04-25T00:50:06;9.50;84.10
7708;DHT22;3896;48.758;8.888;2023-04-25T00:52:32;9.40;84.20
7708;DHT22;3896;48.758;8.888;2023-04-25T00:54:58;9.40;84.40
7708;DHT22;3896;48.758;8.888;2023-04-25T00:57:24;9.40;84.90
7708;DHT22;3896;48.758;8.888;2023-04-25T00:59:51;9.40;85.20
7708;DHT22;3896;48.758;8.888;2023-04-25T01:02:18;9.40;85.50
7708;DHT22;3896;48.758;8.888;2023-04-25T01:04:44;9.40;86.00
7708;DHT22;3896;48.758;8.888;2023-04-25T01:07:10;9.40;86.00
7708;DHT22;3896;48.758;8.888;2023-04-25T01:09:35;9.40;85.90
7708;DHT22;3896;48.758;8.888;2023-04-25T01:12:02;9.40;86.10
7708;DHT22;3896;48.758;8.888;2023-04-25T01:14:28;9.30;85.90
7708;DHT22;3896;48.758;8.888;2023-04-25T01:16:54;9.30;86.60
7708;DHT22;3896;48.758;8.888;2023-04-25T01:19:20;9.30;87.00
7708;DHT22;3896;48.758;8.888;2023-04-25T01:21:46;9.30;87.40
7708;DHT22;3896;48.758;8.888;2023-04-25T01:24:12;9.30;88.40
7708;DHT22;3896;48.758;8.888;2023-04-25T01:26:39;9.20;88.40
7708;DHT22;3896;48.758;8.888;2023-04-25T01:29:07;9.20;88.20
7708;DHT22;3896;48.758;8.888;2023-04-25T01:31:34;9.30;88.40
7708;DHT22;3896;48.758;8.888;2023-04-25T01:34:00;9.20;88.30
7708;DHT22;3896;48.758;8.888;2023-04-25T01:36:26;9.20;88.40
7708;DHT22;3896;48.758;8.888;2023-04-25T01:38:52;9.20;88.30
7708;DHT22;3896;48.758;8.888;2023-04-25T01:41:18;9.20;88.30
7708;DHT22;3896;48.758;8.888;2023-04-25T01:43:44;9.20;88.50
7708;DHT22;3896;48.758;8.888;2023-04-25T01:46:11;9.20;88.90
7708;DHT22;3896;48.758;8.888;2023-04-25T01:48:37;9.10;88.70
7708;DHT22;3896;48.758;8.888;2023-04-25T01:51:03;9.20;88.90
7708;DHT22;3896;48.758;8.888;2023-04-25T01:53:29;9.10;89.30
7708;DHT22;3896;48.758;8.888;2023-04-25T01:55:55;9.10;89.50
7708;DHT22;3896;48.758;8.888;2023-04-25T01:58:20;9.10;89.60
7708;DHT22;3896;48.758;8.888;2023-04-25T02:00:46;9.10;90.00
7708;DHT22;3896;48.758;8.888;2023-04-25T02:03:12;9.10;89.80
7708;DHT22;3896;48.758;8.888;2023-04-25T02:05:38;9.10;89.90
7708;DHT22;3896;48.758;8.888;2023-04-25T02:08:06;9.00;90.10
7708;DHT22;3896;48.758;8.888;2023-04-25T02:10:32;9.00;90.40
7708;DHT22;3896;48.758;8.888;2023-04-25T02:12:58;9.00;90.40
7708;DHT22;3896;48.758;8.888;2023-04-25T02:15:24;9.00;90.60
7708;DHT22;3896;48.758;8.888;2023-04-25T02:17:50;9.00;90.80
7708;DHT22;3896;48.758;8.888;2023-04-25T02:20:15;9.00;90.80
7708;DHT22;3896;48.758;8.888;2023-04-25T02:22:45;9.00;91.20
7708;DHT22;3896;48.758;8.888;2023-04-25T02:25:11;8.90;91.50
7708;DHT22;3896;48.758;8.888;2023-04-25T02:27:37;8.90;91.80
7708;DHT22;3896;48.758;8.888;2023-04-25T02:30:04;8.90;92.20
7708;DHT22;3896;48.758;8.888;2023-04-25T02:32:30;8.90;92.00
7708;DHT22;3896;48.758;8.888;2023-04-25T02:34:55;8.90;92.10
7708;DHT22;3896;48.758;8.888;2023-04-25T02:37:24;8.90;92.40
7708;DHT22;3896;48.758;8.888;2023-04-25T02:39:49;8.90;92.80
7708;DHT22;3896;48.758;8.888;2023-04-25T02:42:15;8.80;93.20
7708;DHT22;3896;48.758;8.888;2023-04-25T02:44:41;8.80;93.50
7708;DHT22;3896;48.758;8.888;2023-04-25T02:47:06;8.80;93.30
7708;DHT22;3896;48.758;8.888;2023-04-25T02:49:32;8.80;93.60
7708;DHT22;3896;48.758;8.888;2023-04-25T02:51:57;8.80;93.90
7708;DHT22;3896;48.758;8.888;2023-04-25T02:54:23;8.80;94.20
7708;DHT22;3896;48.758;8.888;2023-04-25T02:56:48;8.70;94.60
7708;DHT22;3896;48.758;8.888;2023-04-25T02:59:14;8.70;95.00
7708;DHT22;3896;48.758;8.888;2023-04-25T03:01:39;8.70;95.20
7708;DHT22;3896;48.758;8.888;2023-04-25T03:04:05;8.70;95.30
7708;DHT22;3896;48.758;8.888;2023-04-25T03:06:30;8.70;95.30
7708;DHT22;3896;48.758;8.888;2023-04-25T03:08:56;8.70;95.40
7708;DHT22;3896;48.758;8.888;2023-04-25T03:11:21;8.70;95.80
7708;DHT22;3896;48.758;8.888;2023-04-25T03:13:47;8.60;95.80
7708;DHT22;3896;48.758;8.888;2023-04-25T03:16:12;8.70;95.70
7708;DHT22;3896;48.758;8.888;2023-04-25T03:18:38;8.70;95.80
7708;DHT22;3896;48.758;8.888;2023-04-25T03:21:04;8.60;96.10
7708;DHT22;3896;48.758;8.888;2023-04-25T03:23:29;8.60;96.30
7708;DHT22;3896;48.758;8.888;2023-04-25T03:25:55;8.60;96.50
7708;DHT22;3896;48.758;8.888;2023-04-25T03:28:21;8.50;96.60
7708;DHT22;3896;48.758;8.888;2023-04-25T03:30:47;8.50;96.50
7708;DHT22;3896;48.758;8.888;2023-04-25T03:33:12;8.60;96.70
7708;DHT22;3896;48.758;8.888;2023-04-25T03:35:38;8.50;96.70
7708;DHT22;3896;48.758;8.888;2023-04-25T03:38:03;8.50;96.90
7708;DHT22;3896;48.758;8.888;2023-04-25T03:40:29;8.50;97.10
7708;DHT22;3896;48.758;8.888;2023-04-25T03:42:55;8.50;97.10
7708;DHT22;3896;48.758;8.888;2023-04-25T03:45:20;8.50;97.10
7708;DHT22;3896;48.758;8.888;2023-04-25T03:47:46;8.50;96.80
7708;DHT22;3896;48.758;8.888;2023-04-25T03:50:11;8.40;96.90
7708;DHT22;3896;48.758;8.888;2023-04-25T03:52:37;8.50;97.20
7708;DHT22;3896;48.758;8.888;2023-04-25T03:55:03;8.40;97.30
7708;DHT22;3896;48.758;8.888;2023-04-25T03:57:29;8.40;97.10
7708;DHT22;3896;48.758;8.888;2023-04-25T03:59:55;8.40;97.00
7708;DHT22;3896;48.758;8.888;2023-04-25T04:02:20;8.30;96.60
7708;DHT22;3896;48.758;8.888;2023-04-25T04:04:47;8.30;96.70
7708;DHT22;3896;48.758;8.888;2023-04-25T04:07:13;8.30;96.90
7708;DHT22;3896;48.758;8.888;2023-04-25T04:09:39;8.20;96.40
7708;DHT22;3896;48.758;8.888;2023-04-25T04:12:04;8.20;96.00
7708;DHT22;3896;48.758;8.888;2023-04-25T04:14:30;8.10;95.70
7708;DHT22;3896;48.758;8.888;2023-04-25T04:16:55;8.10;95.70
7708;DHT22;3896;48.758;8.888;2023-04-25T04:19:21;8.10;95.80
7708;DHT22;3896;48.758;8.888;2023-04-25T04:21:47;8.00;95.90
7708;DHT22;3896;48.758;8.888;2023-04-25T04:24:12;8.00;96.00
7708;DHT22;3896;48.758;8.888;2023-04-25T04:26:38;7.90;96.20
7708;DHT22;3896;48.758;8.888;2023-04-25T04:29:04;7.90;96.20
7708;DHT22;3896;48.758;8.888;2023-04-25T04:31:29;7.90;96.80
7708;DHT22;3896;48.758;8.888;2023-04-25T04:33:55;7.90;97.10
7708;DHT22;3896;48.758;8.888;2023-04-25T04:36:21;7.80;97.00
7708;DHT22;3896;48.758;8.888;2023-04-25T04:38:48;7.80;97.60
7708;DHT22;3896;48.758;8.888;2023-04-25T04:41:14;7.80;97.80
7708;DHT22;3896;48.758;8.888;2023-04-25T04:43:39;7.80;98.60
7708;DHT22;3896;48.758;8.888;2023-04-25T04:46:06;7.80;98.60
7708;DHT22;3896;48.758;8.888;2023-04-25T04:48:32;7.80;99.00
7708;DHT22;3896;48.758;8.888;2023-04-25T04:50:59;7.80;99.40
7708;DHT22;3896;48.758;8.888;2023-04-25T04:53:25;7.80;99.90
7708;DHT22;3896;48.758;8.888;2023-04-25T04:55:51;7.80;99.90
7708;DHT22;3896;48.758;8.888;2023-04-25T04:58:16;7.80;99.90
7708;DHT22;3896;48.758;8.888;2023-04-25T05:00:42;7.80;99.90
7708;DHT22;3896;48.758;8.888;2023-04-25T05:03:07;7.80;99.90
7708;DHT22;3896;48.758;8.888;2023-04-25T05:05:33;7.80;99.90
7708;DHT22;3896;48.758;8.888;2023-04-25T05:07:58;7.80;99.90
7708;DHT22;3896;48.758;8.888;2023-04-25T05:10:25;7.90;99.90
7708;DHT22;3896;48.758;8.888;2023-04-25T05:12:50;7.90;99.90
7708;DHT22;3896;48.758;8.888;2023-04-25T05:15:16;7.90;99.90
7708;DHT22;3896;48.758;8.888;2023-04-25T05:17:42;7.90;99.90
7708;DHT22;3896;48.758;8.888;2023-04-25T05:20:08;7.90;99.90
7708;DHT22;3896;48.758;8.888;2023-04-25T05:22:35;7.90;99.90
7708;DHT22;3896;48.758;8.888;2023-04-25T05:25:01;8.00;99.90
7708;DHT22;3896;48.758;8.888;2023-04-25T05:27:26;8.00;99.90
7708;DHT22;3896;48.758;8.888;2023-04-25T05:29:52;8.00;99.90
7708;DHT22;3896;48.758;8.888;2023-04-25T05:32:18;8.00;99.90
7708;DHT22;3896;48.758;8.888;2023-04-25T05:34:43;8.00;99.90
7708;DHT22;3896;48.758;8.888;2023-04-25T05:37:09;8.10;99.90
7708;DHT22;3896;48.758;8.888;2023-04-25T05:39:34;8.10;99.90
7708;DHT22;3896;48.758;8.888;2023-04-25T05:42:00;8.10;99.90
7708;DHT22;3896;48.758;8.888;2023-04-25T05:44:28;8.10;99.90
7708;DHT22;3896;48.758;8.888;2023-04-25T05:46:53;8.10;99.90
7708;DHT22;3896;48.758;8.888;2023-04-25T05:49:19;8.20;99.90
7708;DHT22;3896;48.758;8.888;2023-04-25T05:51:45;8.20;99.90
7708;DHT22;3896;48.758;8.888;2023-04-25T05:54:10;8.20;99.90
7708;DHT22;3896;48.758;8.888;2023-04-25T05:56:36;8.20;99.90
7708;DHT22;3896;48.758;8.888;2023-04-25T05:59:01;8.20;99.90
7708;DHT22;3896;48.758;8.888;2023-04-25T06:01:27;8.20;99.90
7708;DHT22;3896;48.758;8.888;2023-04-25T06:03:52;8.30;99.90
7708;DHT22;3896;48.758;8.888;2023-04-25T06:06:18;8.30;99.90
7708;DHT22;3896;48.758;8.888;2023-04-25T06:08:44;8.30;99.90
7708;DHT22;3896;48.758;8.888;2023-04-25T06:11:10;8.30;99.90
7708;DHT22;3896;48.758;8.888;2023-04-25T06:13:36;8.30;99.90
7708;DHT22;3896;48.758;8.888;2023-04-25T06:16:01;8.30;99.90
7708;DHT22;3896;48.758;8.888;2023-04-25T06:18:27;8.30;99.90
7708;DHT22;3896;48.758;8.888;2023-04-25T06:20:52;8.40;99.90
7708;DHT22;3896;48.758;8.888;2023-04-25T06:23:18;8.40;99.90
7708;DHT22;3896;48.758;8.888;2023-04-25T06:25:43;8.70;99.90
7708;DHT22;3896;48.758;8.888;2023-04-25T06:28:09;8.60;99.90
7708;DHT22;3896;48.758;8.888;2023-04-25T06:30:34;8.60;99.90
7708;DHT22;3896;48.758;8.888;2023-04-25T06:33:00;8.60;99.90
7708;DHT22;3896;48.758;8.888;2023-04-25T06:35:25;8.60;99.90
7708;DHT22;3896;48.758;8.888;2023-04-25T06:37:51;8.50;99.90
7708;DHT22;3896;48.758;8.888;2023-04-25T06:40:16;8.60;99.90
7708;DHT22;3896;48.758;8.888;2023-04-25T06:42:42;8.50;99.90
7708;DHT22;3896;48.758;8.888;2023-04-25T06:45:08;8.50;99.90
7708;DHT22;3896;48.758;8.888;2023-04-25T06:47:34;8.50;99.90
7708;DHT22;3896;48.758;8.888;2023-04-25T06:50:00;8.50;99.90
7708;DHT22;3896;48.758;8.888;2023-04-25T06:52:25;8.50;99.90
7708;DHT22;3896;48.758;8.888;2023-04-25T06:54:51;8.50;99.90
7708;DHT22;3896;48.758;8.888;2023-04-25T06:57:16;8.50;99.90
7708;DHT22;3896;48.758;8.888;2023-04-25T06:59:42;8.50;99.90
7708;DHT22;3896;48.758;8.888;2023-04-25T07:02:07;8.50;99.90
7708;DHT22;3896;48.758;8.888;2023-04-25T07:04:33;8.50;99.90
7708;DHT22;3896;48.758;8.888;2023-04-25T07:06:58;8.50;99.90
7708;DHT22;3896;48.758;8.888;2023-04-25T07:09:26;8.60;99.90
7708;DHT22;3896;48.758;8.888;2023-04-25T07:11:51;8.60;99.90
7708;DHT22;3896;48.758;8.888;2023-04-25T07:14:17;8.60;99.90
7708;DHT22;3896;48.758;8.888;2023-04-25T07:16:42;8.60;99.90
7708;DHT22;3896;48.758;8.888;2023-04-25T07:19:08;8.60;99.90
7708;DHT22;3896;48.758;8.888;2023-04-25T07:21:34;8.60;99.90
7708;DHT22;3896;48.758;8.888;2023-04-25T07:23:59;8.60;99.90
7708;DHT22;3896;48.758;8.888;2023-04-25T07:26:25;8.70;99.90
7708;DHT22;3896;48.758;8.888;2023-04-25T07:28:51;8.70;99.90
7708;DHT22;3896;48.758;8.888;2023-04-25T07:31:17;8.70;99.90
7708;DHT22;3896;48.758;8.888;2023-04-25T07:33:44;8.70;99.90
7708;DHT22;3896;48.758;8.888;2023-04-25T07:36:11;8.70;99.90
7708;DHT22;3896;48.758;8.888;2023-04-25T07:38:39;8.70;99.90
7708;DHT22;3896;48.758;8.888;2023-04-25T07:41:04;8.70;99.90
7708;DHT22;3896;48.758;8.888;2023-04-25T07:43:30;8.80;99.90
7708;DHT22;3896;48.758;8.888;2023-04-25T07:45:56;8.80;99.90
7708;DHT22;3896;48.758;8.888;2023-04-25T07:48:22;8.80;99.90
7708;DHT22;3896;48.758;8.888;2023-04-25T07:50:48;8.80;99.90
7708;DHT22;3896;48.758;8.888;2023-04-25T07:53:14;8.80;99.90
7708;DHT22;3896;48.758;8.888;2023-04-25T07:55:39;8.80;99.90
7708;DHT22;3896;48.758;8.888;2023-04-25T07:58:09;8.80;99.90
7708;DHT22;3896;48.758;8.888;2023-04-25T08:00:35;8.80;99.90
7708;DHT22;3896;48.758;8.888;2023-04-25T08:03:01;8.80;99.90
7708;DHT22;3896;48.758;8.888;2023-04-25T08:05:29;8.80;99.90
7708;DHT22;3896;48.758;8.888;2023-04-25T08:07:55;8.90;99.90
7708;DHT22;3896;48.758;8.888;2023-04-25T08:10:22;8.90;99.90
7708;DHT22;3896;48.758;8.888;2023-04-25T08:12:48;8.90;99.90
7708;DHT22;3896;48.758;8.888;2023-04-25T08:15:14;8.90;99.90
7708;DHT22;3896;48.758;8.888;2023-04-25T08:20:13;8.90;99.90
7708;DHT22;3896;48.758;8.888;2023-04-25T08:22:38;8.90;99.90
7708;DHT22;3896;48.758;8.888;2023-04-25T08:25:04;8.90;99.90
7708;DHT22;3896;48.758;8.888;2023-04-25T08:27:30;8.90;99.90
7708;DHT22;3896;48.758;8.888;2023-04-25T08:29:55;8.90;99.90
7708;DHT22;3896;48.758;8.888;2023-04-25T08:32:21;9.00;99.90
7708;DHT22;3896;48.758;8.888;2023-04-25T08:34:47;9.00;99.90
7708;DHT22;3896;48.758;8.888;2023-04-25T08:37:12;9.00;99.90
7708;DHT22;3896;48.758;8.888;2023-04-25T08:39:39;9.00;99.90
7708;DHT22;3896;48.758;8.888;2023-04-25T08:42:07;9.00;99.90
7708;DHT22;3896;48.758;8.888;2023-04-25T08:44:36;9.00;99.90
7708;DHT22;3896;48.758;8.888;2023-04-25T08:47:05;9.00;99.90
7708;DHT22;3896;48.758;8.888;2023-04-25T08:49:34;9.00;99.90
7708;DHT22;3896;48.758;8.888;2023-04-25T08:52:01;9.00;99.90
7708;DHT22;3896;48.758;8.888;2023-04-25T08:54:28;9.00;99.90
7708;DHT22;3896;48.758;8.888;2023-04-25T08:56:57;9.00;99.90
7708;DHT22;3896;48.758;8.888;2023-04-25T08:59:24;9.00;99.90
7708;DHT22;3896;48.758;8.888;2023-04-25T09:01:50;9.00;99.90
7708;DHT22;3896;48.758;8.888;2023-04-25T09:04:17;9.00;99.90
7708;DHT22;3896;48.758;8.888;2023-04-25T09:06:43;9.00;99.90
7708;DHT22;3896;48.758;8.888;2023-04-25T09:09:09;9.00;99.90
7708;DHT22;3896;48.758;8.888;2023-04-25T09:11:38;9.00;99.90
7708;DHT22;3896;48.758;8.888;2023-04-25T09:14:18;9.00;99.90
7708;DHT22;3896;48.758;8.888;2023-04-25T09:19:29;8.90;99.90
7708;DHT22;3896;48.758;8.888;2023-04-25T09:21:57;8.90;99.90
7708;DHT22;3896;48.758;8.888;2023-04-25T09:24:43;8.90;99.90
7708;DHT22;3896;48.758;8.888;2023-04-25T09:27:11;8.80;99.90
7708;DHT22;3896;48.758;8.888;2023-04-25T09:29:41;8.90;99.90
7708;DHT22;3896;48.758;8.888;2023-04-25T09:34:42;8.80;99.90
7708;DHT22;3896;48.758;8.888;2023-04-25T09:37:11;8.80;99.90
7708;DHT22;3896;48.758;8.888;2023-04-25T09:39:38;8.80;99.90
7708;DHT22;3896;48.758;8.888;2023-04-25T09:42:04;8.90;99.90
7708;DHT22;3896;48.758;8.888;2023-04-25T09:44:30;8.90;99.90
7708;DHT22;3896;48.758;8.888;2023-04-25T09:46:56;8.90;99.90
7708;DHT22;3896;48.758;8.888;2023-04-25T09:49:22;8.90;99.90
7708;DHT22;3896;48.758;8.888;2023-04-25T09:51:55;8.90;99.90
7708;DHT22;3896;48.758;8.888;2023-04-25T09:54:21;8.90;99.90
7708;DHT22;3896;48.758;8.888;2023-04-25T09:56:48;8.90;99.90
7708;DHT22;3896;48.758;8.888;2023-04-25T09:59:16;8.90;99.90
7708;DHT22;3896;48.758;8.888;2023-04-25T10:01:44;8.90;99.90
7708;DHT22;3896;48.758;8.888;2023-04-25T10:04:10;9.00;99.90
7708;DHT22;3896;48.758;8.888;2023-04-25T10:06:37;9.00;99.90
7708;DHT22;3896;48.758;8.888;2023-04-25T10:09:04;9.00;99.90
7708;DHT22;3896;48.758;8.888;2023-04-25T10:11:33;9.00;99.90
7708;DHT22;3896;48.758;8.888;2023-04-25T10:14:00;9.00;99.90
7708;DHT22;3896;48.758;8.888;2023-04-25T10:16:26;9.00;99.90
7708;DHT22;3896;48.758;8.888;2023-04-25T10:18:53;9.00;99.90
7708;DHT22;3896;48.758;8.888;2023-04-25T10:21:20;9.00;99.90
7708;DHT22;3896;48.758;8.888;2023-04-25T10:23:47;9.10;99.90
7708;DHT22;3896;48.758;8.888;2023-04-25T10:26:13;9.10;99.90
7708;DHT22;3896;48.758;8.888;2023-04-25T10:29:00;9.10;99.90
7708;DHT22;3896;48.758;8.888;2023-04-25T10:31:26;9.10;99.90
7708;DHT22;3896;48.758;8.888;2023-04-25T10:33:53;9.10;99.90
7708;DHT22;3896;48.758;8.888;2023-04-25T10:36:22;9.20;99.90
7708;DHT22;3896;48.758;8.888;2023-04-25T10:38:49;9.20;99.90
7708;DHT22;3896;48.758;8.888;2023-04-25T10:41:19;9.20;99.90
7708;DHT22;3896;48.758;8.888;2023-04-25T10:43:47;9.20;99.90
7708;DHT22;3896;48.758;8.888;2023-04-25T10:48:47;9.30;99.90
7708;DHT22;3896;48.758;8.888;2023-04-25T10:51:32;9.30;99.90
7708;DHT22;3896;48.758;8.888;2023-04-25T10:54:03;9.30;99.90
7708;DHT22;3896;48.758;8.888;2023-04-25T10:56:35;9.30;99.90
7708;DHT22;3896;48.758;8.888;2023-04-25T11:01:38;9.30;99.90
7708;DHT22;3896;48.758;8.888;2023-04-25T11:04:05;9.30;99.90
7708;DHT22;3896;48.758;8.888;2023-04-25T11:09:15;9.30;99.90
7708;DHT22;3896;48.758;8.888;2023-04-25T11:11:41;9.30;99.90
7708;DHT22;3896;48.758;8.888;2023-04-25T11:14:06;9.40;99.90
7708;DHT22;3896;48.758;8.888;2023-04-25T11:16:32;9.40;99.90
7708;DHT22;3896;48.758;8.888;2023-04-25T11:18:58;9.40;99.90
7708;DHT22;3896;48.758;8.888;2023-04-25T11:21:25;9.40;99.90
7708;DHT22;3896;48.758;8.888;2023-04-25T11:23:56;9.40;99.90
7708;DHT22;3896;48.758;8.888;2023-04-25T11:26:22;9.40;99.90
7708;DHT22;3896;48.758;8.888;2023-04-25T11:28:49;9.40;99.90
7708;DHT22;3896;48.758;8.888;2023-04-25T11:31:15;9.40;99.90
7708;DHT22;3896;48.758;8.888;2023-04-25T11:33:40;9.50;99.90
7708;DHT22;3896;48.758;8.888;2023-04-25T11:36:07;9.50;99.90
7708;DHT22;3896;48.758;8.888;2023-04-25T11:38:34;9.50;99.90
7708;DHT22;3896;48.758;8.888;2023-04-25T11:40:59;9.60;99.90
7708;DHT22;3896;48.758;8.888;2023-04-25T11:43:26;9.60;99.90
7708;DHT22;3896;48.758;8.888;2023-04-25T11:45:54;9.60;99.90
7708;DHT22;3896;48.758;8.888;2023-04-25T11:48:19;9.60;99.90
7708;DHT22;3896;48.758;8.888;2023-04-25T11:50:45;9.70;99.90
7708;DHT22;3896;48.758;8.888;2023-04-25T11:53:11;9.70;99.90
7708;DHT22;3896;48.758;8.888;2023-04-25T11:55:37;9.70;99.90
7708;DHT22;3896;48.758;8.888;2023-04-25T11:58:04;9.70;99.90
7708;DHT22;3896;48.758;8.888;2023-04-25T12:00:31;9.70;99.90
7708;DHT22;3896;48.758;8.888;2023-04-25T12:02:57;9.80;99.90
7708;DHT22;3896;48.758;8.888;2023-04-25T12:05:27;9.90;99.90
7708;DHT22;3896;48.758;8.888;2023-04-25T12:07:55;9.90;99.90
7708;DHT22;3896;48.758;8.888;2023-04-25T12:10:21;9.90;99.90
7708;DHT22;3896;48.758;8.888;2023-04-25T12:12:47;10.00;99.90
7708;DHT22;3896;48.758;8.888;2023-04-25T12:15:22;10.00;99.90
7708;DHT22;3896;48.758;8.888;2023-04-25T12:17:50;10.00;99.90
7708;DHT22;3896;48.758;8.888;2023-04-25T12:20:21;10.10;99.90
7708;DHT22;3896;48.758;8.888;2023-04-25T12:22:49;10.10;99.90
7708;DHT22;3896;48.758;8.888;2023-04-25T12:25:41;10.10;99.90
7708;DHT22;3896;48.758;8.888;2023-04-25T12:31:18;10.20;99.90
7708;DHT22;3896;48.758;8.888;2023-04-25T12:33:43;10.20;99.90
7708;DHT22;3896;48.758;8.888;2023-04-25T12:36:13;10.30;99.90
7708;DHT22;3896;48.758;8.888;2023-04-25T12:38:40;10.30;99.90
7708;DHT22;3896;48.758;8.888;2023-04-25T12:41:06;10.40;99.90
7708;DHT22;3896;48.758;8.888;2023-04-25T12:43:32;10.40;99.90
7708;DHT22;3896;48.758;8.888;2023-04-25T12:45:58;10.50;99.90
7708;DHT22;3896;48.758;8.888;2023-04-25T12:48:24;10.60;99.90
7708;DHT22;3896;48.758;8.888;2023-04-25T12:50:50;10.70;99.90
7708;DHT22;3896;48.758;8.888;2023-04-25T12:53:18;10.70;99.90
7708;DHT22;3896;48.758;8.888;2023-04-25T12:55:44;10.80;99.90
7708;DHT22;3896;48.758;8.888;2023-04-25T12:58:14;10.90;99.90
7708;DHT22;3896;48.758;8.888;2023-04-25T13:00:39;10.90;99.90
7708;DHT22;3896;48.758;8.888;2023-04-25T13:03:05;11.00;99.90
7708;DHT22;3896;48.758;8.888;2023-04-25T13:05:31;11.10;99.90
7708;DHT22;3896;48.758;8.888;2023-04-25T13:07:57;11.10;99.90
7708;DHT22;3896;48.758;8.888;2023-04-25T13:10:23;11.20;99.90
7708;DHT22;3896;48.758;8.888;2023-04-25T13:12:48;11.30;99.90
7708;DHT22;3896;48.758;8.888;2023-04-25T13:15:14;11.30;99.90
7708;DHT22;3896;48.758;8.888;2023-04-25T13:17:41;11.40;99.90
7708;DHT22;3896;48.758;8.888;2023-04-25T13:20:07;11.40;99.90
7708;DHT22;3896;48.758;8.888;2023-04-25T13:22:38;11.50;99.90
7708;DHT22;3896;48.758;8.888;2023-04-25T13:25:05;11.50;99.90
7708;DHT22;3896;48.758;8.888;2023-04-25T13:27:32;11.60;99.90
7708;DHT22;3896;48.758;8.888;2023-04-25T13:29:59;11.70;99.60
7708;DHT22;3896;48.758;8.888;2023-04-25T13:32:26;11.80;99.50
7708;DHT22;3896;48.758;8.888;2023-04-25T13:34:52;11.90;99.10
7708;DHT22;3896;48.758;8.888;2023-04-25T13:37:18;12.00;98.50
7708;DHT22;3896;48.758;8.888;2023-04-25T13:39:43;12.10;97.70
7708;DHT22;3896;48.758;8.888;2023-04-25T13:42:09;12.10;96.90
7708;DHT22;3896;48.758;8.888;2023-04-25T13:44:34;12.20;96.50
7708;DHT22;3896;48.758;8.888;2023-04-25T13:47:00;12.20;96.40
7708;DHT22;3896;48.758;8.888;2023-04-25T13:49:26;12.30;95.80
7708;DHT22;3896;48.758;8.888;2023-04-25T13:51:51;12.40;96.10
7708;DHT22;3896;48.758;8.888;2023-04-25T13:54:17;12.50;95.40
7708;DHT22;3896;48.758;8.888;2023-04-25T13:56:43;12.50;95.20
7708;DHT22;3896;48.758;8.888;2023-04-25T13:59:08;12.60;95.00
7708;DHT22;3896;48.758;8.888;2023-04-25T14:01:34;12.70;94.20
7708;DHT22;3896;48.758;8.888;2023-04-25T14:04:01;12.70;93.50
7708;DHT22;3896;48.758;8.888;2023-04-25T14:06:27;12.80;93.00
7708;DHT22;3896;48.758;8.888;2023-04-25T14:08:53;12.80;92.50
7708;DHT22;3896;48.758;8.888;2023-04-25T14:11:19;12.90;92.10
7708;DHT22;3896;48.758;8.888;2023-04-25T14:13:46;12.90;92.20
7708;DHT22;3896;48.758;8.888;2023-04-25T14:16:11;13.00;91.20
7708;DHT22;3896;48.758;8.888;2023-04-25T14:18:37;13.00;90.80
7708;DHT22;3896;48.758;8.888;2023-04-25T14:21:02;13.10;90.90
7708;DHT22;3896;48.758;8.888;2023-04-25T14:23:28;13.20;90.70
7708;DHT22;3896;48.758;8.888;2023-04-25T14:25:54;13.30;90.00
7708;DHT22;3896;48.758;8.888;2023-04-25T14:28:19;13.40;89.20
7708;DHT22;3896;48.758;8.888;2023-04-25T14:30:45;13.40;89.00
7708;DHT22;3896;48.758;8.888;2023-04-25T14:33:11;13.50;86.70
7708;DHT22;3896;48.758;8.888;2023-04-25T14:35:37;13.60;86.10
7708;DHT22;3896;48.758;8.888;2023-04-25T14:38:03;13.60;85.90
7708;DHT22;3896;48.758;8.888;2023-04-25T14:40:28;13.70;84.80
7708;DHT22;3896;48.758;8.888;2023-04-25T14:42:54;13.80;83.40
7708;DHT22;3896;48.758;8.888;2023-04-25T14:45:20;13.80;81.40
7708;DHT22;3896;48.758;8.888;2023-04-25T14:47:45;13.90;81.20
7708;DHT22;3896;48.758;8.888;2023-04-25T14:50:11;14.00;80.50
7708;DHT22;3896;48.758;8.888;2023-04-25T14:52:36;14.10;80.10
7708;DHT22;3896;48.758;8.888;2023-04-25T14:55:02;14.30;78.40
7708;DHT22;3896;48.758;8.888;2023-04-25T14:57:32;14.50;77.10
7708;DHT22;3896;48.758;8.888;2023-04-25T14:59:57;14.70;76.70
7708;DHT22;3896;48.758;8.888;2023-04-25T15:02:24;14.90;74.80
7708;DHT22;3896;48.758;8.888;2023-04-25T15:04:49;15.10;73.60
7708;DHT22;3896;48.758;8.888;2023-04-25T15:07:15;15.20;72.30
7708;DHT22;3896;48.758;8.888;2023-04-25T15:09:41;15.30;71.90
7708;DHT22;3896;48.758;8.888;2023-04-25T15:12:07;15.40;70.60
7708;DHT22;3896;48.758;8.888;2023-04-25T15:14:33;15.60;69.70
7708;DHT22;3896;48.758;8.888;2023-04-25T15:16:59;15.60;68.80
7708;DHT22;3896;48.758;8.888;2023-04-25T15:19:25;15.70;68.00
7708;DHT22;3896;48.758;8.888;2023-04-25T15:21:51;15.80;66.90
7708;DHT22;3896;48.758;8.888;2023-04-25T15:24:17;15.90;67.30
7708;DHT22;3896;48.758;8.888;2023-04-25T15:26:43;15.90;66.90
7708;DHT22;3896;48.758;8.888;2023-04-25T15:29:08;16.00;65.90
7708;DHT22;3896;48.758;8.888;2023-04-25T15:31:35;16.00;66.00
7708;DHT22;3896;48.758;8.888;2023-04-25T15:34:01;16.10;65.00
7708;DHT22;3896;48.758;8.888;2023-04-25T15:36:26;16.10;65.20
7708;DHT22;3896;48.758;8.888;2023-04-25T15:38:52;16.10;65.50
7708;DHT22;3896;48.758;8.888;2023-04-25T15:41:18;16.20;64.90
7708;DHT22;3896;48.758;8.888;2023-04-25T15:43:43;16.10;64.20
7708;DHT22;3896;48.758;8.888;2023-04-25T15:46:09;16.10;64.60
7708;DHT22;3896;48.758;8.888;2023-04-25T15:48:34;16.10;64.00
7708;DHT22;3896;48.758;8.888;2023-04-25T15:51:00;16.10;63.90
7708;DHT22;3896;48.758;8.888;2023-04-25T15:53:26;16.10;63.80
7708;DHT22;3896;48.758;8.888;2023-04-25T15:55:51;16.00;63.50
7708;DHT22;3896;48.758;8.888;2023-04-25T15:58:17;15.90;62.80
7708;DHT22;3896;48.758;8.888;2023-04-25T16:00:42;15.80;62.50
7708;DHT22;3896;48.758;8.888;2023-04-25T16:03:09;15.80;62.90
7708;DHT22;3896;48.758;8.888;2023-04-25T16:05:35;15.70;63.00
7708;DHT22;3896;48.758;8.888;2023-04-25T16:08:01;15.60;63.30
7708;DHT22;3896;48.758;8.888;2023-04-25T16:10:28;15.50;63.10
7708;DHT22;3896;48.758;8.888;2023-04-25T16:12:53;15.50;63.00
7708;DHT22;3896;48.758;8.888;2023-04-25T16:15:19;15.40;63.50
7708;DHT22;3896;48.758;8.888;2023-04-25T16:17:44;15.40;63.40
7708;DHT22;3896;48.758;8.888;2023-04-25T16:20:10;15.30;63.60
7708;DHT22;3896;48.758;8.888;2023-04-25T16:22:38;15.20;63.60
7708;DHT22;3896;48.758;8.888;2023-04-25T16:25:05;15.20;64.10
7708;DHT22;3896;48.758;8.888;2023-04-25T16:27:31;15.10;63.90